• Join FlightAware (Why Join?)
  • Login
  • US Flag 
11:51AM EDT


 

Airport Tracker/Info


-or-


 

Live Flight TrackerFlight Track Log ✈ JBU56 ✈ 25-Nov-2013 ✈ KIAD - KBOS

Flight Track Log - Related Links

Times and Time Zones

All times are in EST time to prevent confusion due to time zone crossing. See the JBU56 flight status page for this flight to view local times or setup timezone preferences in your user account.

Time Position Orientation Groundspeed Altitude Reporting Facility
EST Latitude Longitude Course Direction KTS MPH feet Rate Location/Type
09:48AM 38.9500 -77.5000 90° East 152 175 1,800  Level Potomac TRACON
09:49AM 38.9833 -77.5500 311° West 209 241 3,500 2,100 Climbing Potomac TRACON
09:50AM 39.0333 -77.6000 322° Northwest 260 299 5,900 2,340 Climbing Potomac TRACON
09:51AM 39.1935 -77.0369 74° East  Level Estimated
09:51AM 39.1217 -77.4750 48° Northeast 284 327 10,000  Level Washington Center
09:52AM 39.2548 -76.9306 76° East  Level Estimated
09:52AM 39.1569 -77.3583 69° East 316 364 10,000  Level Washington Center
09:53AM 39.3160 -76.8242 90° East  Level Estimated
09:53AM 39.1253 -77.2344 108° East 324 373 12,200  Level Washington Center
09:54AM 39.0872 -77.1078 111° Southeast 345 397 14,800 2,400 Climbing Washington Center
09:55AM 39.0556 -76.9708 107° East 373 429 17,100 1,920 Climbing Washington Center
09:56AM 39.0675 -76.8242 84° East 393 452 18,700 1,740 Climbing Washington Center
09:57AM 39.0878 -76.6747 80° East 401 461 20,600 1,920 Climbing Washington Center
09:58AM 39.1100 -76.5144 80° East 427 491 22,500 1,140 Climbing Washington Center
09:59AM 39.1319 -76.3542 80° East 442 509 23,000 240 Climbing Washington Center
10:00AM 39.1536 -76.1911 80° East 454 522 23,000 480 Level Washington Center
10:01AM 39.1731 -76.0253 81° East 464 534 24,000 1,140 Climbing Washington Center
10:02AM 39.2089 -75.8622 74° East 469 540 25,400 1,380 Climbing Washington Center
10:03AM 39.3031 -75.7417 45° Northeast 451 519 26,900 1,260 Climbing Washington Center
10:04AM 39.3864 -75.6344 45° Northeast 461 531 27,900 1,080 Climbing Washington Center
10:05AM 39.4928 -75.4947 45° Northeast 475 547 29,100 1,380 Climbing Washington Center
10:06AM 39.5781 -75.3842 45° Northeast 485 558 30,700 660 Climbing Washington Center
10:08AM 39.7489 -75.1422 47° Northeast 470 541 31,000 60 Climbing New York Center
10:09AM 39.8456 -75.0078 47° Northeast 490 564 31,000  Level New York Center
10:10AM 39.9400 -74.8753 47° Northeast 497 572 31,000  Level New York Center
10:11AM 40.0281 -74.7422 49° Northeast 497 572 31,000  Level New York Center
10:12AM 40.1219 -74.6092 47° Northeast 497 572 31,000  Level New York Center
10:13AM 40.2111 -74.4917 45° Northeast 492 566 31,000  Level New York Center
10:14AM 40.3153 -74.3586 44° Northeast 492 566 31,000  Level New York Center
10:15AM 40.3900 -74.2317 52° Northeast 492 566 31,000  Level New York Center
10:17AM 40.5642 -73.9433 51° Northeast 494 568 31,000 -240 Level Boston Center
10:19AM 40.6105 -73.7875 69° East  Level FlightAware Approximate
10:19AM 40.7333 -73.6589 69° East 495 570 30,100  Level Boston Center
10:20AM 40.8150 -73.5192 52° Northeast 482 555 27,800 -1,560 Descending Boston Center
10:21AM 40.9125 -73.3653 50° Northeast 458 527 27,000 -420 Descending Boston Center
10:22AM 40.9856 -73.2581 48° Northeast 455 524 27,000 -180 Level Boston Center
10:23AM 41.0686 -73.1331 49° Northeast 454 522 26,700 -1,200 Descending Boston Center
10:24AM 41.1517 -73.0097 48° Northeast 451 519 24,600 -1,860 Descending Boston Center
10:25AM 41.2394 -72.8608 52° Northeast 436 502 23,000 -840 Descending Boston Center
10:26AM 41.2933 -72.7172 63° Northeast 438 504 23,000  Level Boston Center
10:27AM 41.3483 -72.5697 64° Northeast 441 507 23,000  Level Boston Center
10:28AM 41.4022 -72.4211 64° Northeast 443 510 23,000  Level Boston Center
10:29AM 41.4561 -72.2744 64° Northeast 443 510 23,000  Level Boston Center
10:31AM 41.5100 -72.1267 64° Northeast 442 509 23,000 -300 Level Boston Center
10:32AM 41.5606 -71.9833 65° Northeast 441 507 22,400 -1,380 Descending Boston Center
10:33AM 41.6050 -71.8336 68° East 436 502 20,300 -2,160 Descending Boston Center
10:34AM 41.6553 -71.6675 68° East 416 479 18,100 -2,100 Descending Boston Center
10:35AM 41.6975 -71.5247 68° East 391 450 16,100 -1,860 Descending Boston Center
10:36AM 41.7389 -71.3958 67° East 381 438 14,300 -1,680 Descending Boston Center
10:37AM 41.7889 -71.2814 60° Northeast 358 412 12,600 -1,680 Descending Boston Center
10:38AM 41.8628 -71.2006 39° Northeast 322 371 11,000 -1,440 Descending Boston Center
10:39AM 41.9289 -71.1397 34° Northeast 290 334 9,700 -1,440 Descending Boston Center
10:40AM 41.9906 -71.0822 35° Northeast 274 315 8,100 -1,620 Descending Boston Center
10:41AM 42.0519 -71.0261 34° Northeast 267 307 6,500 -1,080 Descending Boston Center
10:42AM 42.1158 -70.9647 35° Northeast 265 305 6,000 -1,020 Descending Boston Center
10:43AM 42.1542 -70.8839 57° Northeast 274 315 4,500 -1,200 Descending Boston Center
10:44AM 42.2000 -70.8000 54° Northeast 222 255 3,300 -660 Descending KA90
10:45AM 42.2500 -70.8333 334° Northwest 162 186 3,000 -300 Descending KA90
10:46AM 42.2633 -70.8717 295° West 156 180 2,800 -660 Descending Boston Center
10:47AM 42.2928 -70.9094 317° Northwest 149 171 1,900 -840 Descending Boston Center
10:48AM 42.3200 -70.9467 315° West 141 162 1,100 -840 Descending Boston Center
10:49AM 42.3467 -70.9781 319° Northwest 130 150 300 -840 Descending Boston Center